Station Historical Data
Daily Summary for October 27, 2017 Units:  English    Metric   Both
« Previous Day
Next Day »
Daily Weekly Monthly Yearly Custom
  High: Low: Average:
Temperature: 71.2 °F 43.7 °F 57.2 °F
Dew Point: 55.2 °F 41.5 °F 48 °F
Humidity: 93% 49% 74%
Wind Speed: 3.5mph 0.0mph 0.3mph
Wind Gust: 3.5mph - -
Wind- - West
Pressure: 30.12 in 29.98 in -
Precipitation: 0.00 in    
Historical Graphs
 
 
Tabular Data for October 27, 2017
Time Temperature Dew Point Pressure Wind Wind Speed Wind Gust Humidity Rainfall Rate (Hourly) Conditions
00:01 49.7 °F 46.3 °F 30.07 in Calm     88% 0.00 in CLR
00:06 49.6 °F 46.2 °F 30.06 in Calm     88% 0.00 in CLR
00:11 49.5 °F 46.1 °F 30.06 in Calm     88% 0.00 in CLR
00:16 49.4 °F 46.0 °F 30.06 in Calm     88% 0.00 in CLR
00:22 49.3 °F 46.2 °F 30.07 in Calm     89% 0.00 in CLR
00:27 49.2 °F 46.1 °F 30.06 in Calm     89% 0.00 in CLR
00:32 49.0 °F 45.9 °F 30.07 in Calm     89% 0.00 in CLR
00:37 48.9 °F 45.8 °F 30.07 in Calm     89% 0.00 in CLR
00:42 48.7 °F 45.6 °F 30.07 in Calm     89% 0.00 in CLR
00:47 48.6 °F 45.5 °F 30.07 in Calm     89% 0.00 in CLR
00:52 48.5 °F 45.4 °F 30.07 in Calm     89% 0.00 in CLR
00:57 48.4 °F 45.3 °F 30.07 in Calm     89% 0.00 in CLR
01:03 48.3 °F 45.5 °F 30.07 in Calm     90% 0.00 in CLR
01:08 48.2 °F 45.4 °F 30.07 in Calm     90% 0.00 in CLR
01:13 48.0 °F 45.2 °F 30.07 in Calm     90% 0.00 in CLR
01:18 47.9 °F 45.1 °F 30.07 in Calm     90% 0.00 in CLR
01:23 47.8 °F 45.0 °F 30.06 in Calm     90% 0.00 in CLR
01:28 47.7 °F 44.9 °F 30.07 in Calm     90% 0.00 in CLR
01:33 47.6 °F 44.8 °F 30.07 in Calm     90% 0.00 in CLR
01:38 47.5 °F 44.7 °F 30.07 in Calm     90% 0.00 in CLR
01:44 47.4 °F 44.6 °F 30.07 in Calm     90% 0.00 in CLR
01:49 47.2 °F 44.4 °F 30.07 in Calm     90% 0.00 in CLR
01:54 47.1 °F 44.3 °F 30.07 in Calm     90% 0.00 in CLR
01:59 47.0 °F 44.2 °F 30.07 in Calm     90% 0.00 in CLR
02:04 46.9 °F 44.1 °F 30.07 in Calm     90% 0.00 in CLR
02:09 46.9 °F 44.1 °F 30.07 in Calm     90% 0.00 in CLR
02:14 46.9 °F 44.4 °F 30.07 in Calm     91% 0.00 in CLR
02:19 46.9 °F 44.4 °F 30.07 in Calm     91% 0.00 in CLR
02:24 47.0 °F 44.5 °F 30.07 in Calm     91% 0.00 in CLR
02:30 47.1 °F 44.7 °F 30.07 in Calm     91% 0.00 in CLR
02:35 47.1 °F 44.6 °F 30.07 in Calm     91% 0.00 in CLR
02:40 47.1 °F 44.6 °F 30.07 in Calm     91% 0.00 in CLR
02:45 47.0 °F 44.5 °F 30.07 in Calm     91% 0.00 in CLR
02:50 46.9 °F 44.4 °F 30.07 in Calm     91% 0.00 in CLR
02:55 46.8 °F 44.3 °F 30.07 in Calm     91% 0.00 in CLR
03:00 46.8 °F 44.3 °F 30.07 in Calm     91% 0.00 in CLR
03:05 46.9 °F 44.4 °F 30.07 in Calm     91% 0.00 in CLR
03:10 46.8 °F 44.3 °F 30.07 in Calm     91% 0.00 in CLR
03:15 46.8 °F 44.3 °F 30.07 in Calm     91% 0.00 in CLR
03:20 46.7 °F 44.2 °F 30.07 in Calm     91% 0.00 in CLR
03:25 46.5 °F 44.0 °F 30.07 in Calm     91% 0.00 in CLR
03:30 46.5 °F 44.0 °F 30.07 in Calm     91% 0.00 in CLR
03:35 46.5 °F 44.0 °F 30.07 in Calm     91% 0.00 in CLR
03:40 46.5 °F 44.0 °F 30.07 in Calm     91% 0.00 in CLR
03:45 46.6 °F 44.1 °F 30.07 in Calm     91% 0.00 in CLR
03:50 46.5 °F 44.0 °F 30.07 in Calm     91% 0.00 in CLR
03:55 46.4 °F 43.9 °F 30.07 in Calm     91% 0.00 in CLR
04:00 46.3 °F 43.8 °F 30.07 in Calm     91% 0.00 in CLR
04:05 46.2 °F 43.7 °F 30.07 in Calm     91% 0.00 in CLR
04:10 46.2 °F 43.7 °F 30.07 in Calm     91% 0.00 in CLR
04:15 46.4 °F 44.2 °F 30.07 in Calm     92% 0.00 in CLR
04:20 46.5 °F 44.3 °F 30.07 in Calm     92% 0.00 in CLR
04:25 46.5 °F 44.0 °F 30.07 in Calm     91% 0.00 in CLR
04:30 46.6 °F 44.4 °F 30.07 in Calm     92% 0.00 in CLR
04:35 46.4 °F 44.0 °F 30.07 in Calm     91% 0.00 in CLR
04:40 46.3 °F 43.8 °F 30.07 in Calm     91% 0.00 in CLR
04:45 46.4 °F 43.9 °F 30.07 in Calm     91% 0.00 in CLR
04:50 46.2 °F 43.7 °F 30.07 in Calm     91% 0.00 in CLR
04:55 46.0 °F 43.5 °F 30.07 in Calm     91% 0.00 in CLR
05:00 45.8 °F 43.3 °F 30.07 in Calm     91% 0.00 in CLR
05:05 45.7 °F 43.2 °F 30.07 in Calm     91% 0.00 in CLR
05:10 45.7 °F 43.2 °F 30.07 in Calm     91% 0.00 in CLR
05:15 45.6 °F 43.1 °F 30.07 in Calm     91% 0.00 in CLR
05:20 45.6 °F 43.1 °F 30.07 in Calm     91% 0.00 in CLR
05:25 45.5 °F 43.0 °F 30.08 in Calm     91% 0.00 in CLR
05:30 45.5 °F 43.0 °F 30.08 in Calm     91% 0.00 in CLR
05:35 45.4 °F 43.2 °F 30.08 in Calm     92% 0.00 in CLR
05:40 45.5 °F 43.3 °F 30.08 in Calm     92% 0.00 in CLR
05:50 45.4 °F 43.2 °F 30.09 in Calm     92% 0.00 in CLR
05:55 45.4 °F 43.2 °F 30.09 in Calm     92% 0.00 in CLR
06:00 45.3 °F 43.1 °F 30.09 in Calm     92% 0.00 in CLR
06:05 45.2 °F 43.0 °F 30.09 in Calm     92% 0.00 in CLR
06:10 45.0 °F 42.5 °F 30.09 in Calm     91% 0.00 in CLR
06:15 44.9 °F 42.4 °F 30.09 in Calm     91% 0.00 in CLR
06:20 44.9 °F 42.7 °F 30.09 in Calm     92% 0.00 in CLR
06:25 44.8 °F 42.7 °F 30.10 in Calm     92% 0.00 in CLR
06:26 44.9 °F 42.7 °F 30.10 in Calm     92% 0.00 in CLR
06:31 44.8 °F 42.6 °F 30.09 in Calm     92% 0.00 in CLR
06:36 44.7 °F 42.5 °F 30.10 in Calm     92% 0.00 in CLR
06:41 44.6 °F 42.4 °F 30.10 in Calm     92% 0.00 in CLR
06:46 44.5 °F 42.3 °F 30.10 in Calm     92% 0.00 in CLR
06:51 44.4 °F 42.2 °F 30.10 in Calm     92% 0.00 in CLR
06:57 44.4 °F 42.2 °F 30.10 in Calm     92% 0.00 in CLR
07:02 44.3 °F 42.1 °F 30.10 in Calm     92% 0.00 in CLR
07:07 44.3 °F 42.1 °F 30.10 in Calm     92% 0.00 in CLR
07:12 44.2 °F 42.0 °F 30.10 in Calm     92% 0.00 in CLR
07:17 44.1 °F 41.9 °F 30.10 in Calm     92% 0.00 in CLR
07:22 44.1 °F 41.9 °F 30.10 in Calm     92% 0.00 in CLR
07:27 44.0 °F 41.8 °F 30.10 in Calm     92% 0.00 in CLR
07:32 43.9 °F 41.7 °F 30.10 in Calm     92% 0.00 in CLR
07:38 43.9 °F 41.7 °F 30.10 in Calm     92% 0.00 in CLR
07:43 43.9 °F 41.7 °F 30.10 in Calm     92% 0.00 in CLR
07:48 43.8 °F 41.6 °F 30.10 in Calm     92% 0.00 in CLR
07:53 43.8 °F 41.6 °F 30.10 in Calm     92% 0.00 in CLR
07:58 43.8 °F 41.6 °F 30.10 in Calm     92% 0.00 in CLR
08:03 43.7 °F 41.5 °F 30.10 in Calm     92% 0.00 in FEW
08:08 43.8 °F 41.6 °F 30.10 in Calm     92% 0.00 in FEW
08:13 43.7 °F 41.5 °F 30.11 in Calm     92% 0.00 in FEW
08:19 43.9 °F 41.7 °F 30.10 in Calm     92% 0.00 in FEW
08:24 44.2 °F 42.3 °F 30.10 in Calm     93% 0.00 in FEW
08:29 44.3 °F 42.1 °F 30.10 in Calm     92% 0.00 in FEW
08:34 44.5 °F 42.6 °F 30.11 in Calm     93% 0.00 in FEW
08:39 44.6 °F 42.7 °F 30.11 in Calm     93% 0.00 in FEW
08:44 44.7 °F 42.8 °F 30.11 in Calm     93% 0.00 in FEW
08:49 44.9 °F 43.0 °F 30.11 in Calm     93% 0.00 in FEW
08:54 45.4 °F 43.5 °F 30.11 in Calm     93% 0.00 in FEW
09:00 45.7 °F 43.8 °F 30.11 in Calm     93% 0.00 in FEW
09:05 46.0 °F 44.1 °F 30.11 in Calm     93% 0.00 in CLR
09:10 46.5 °F 44.6 °F 30.11 in Calm     93% 0.00 in CLR
09:15 46.9 °F 45.0 °F 30.11 in Calm     93% 0.00 in CLR
09:20 47.3 °F 45.4 °F 30.11 in Calm     93% 0.00 in CLR
09:25 47.7 °F 45.8 °F 30.11 in Calm     93% 0.00 in CLR
09:30 48.2 °F 46.3 °F 30.11 in Calm     93% 0.00 in CLR
09:35 48.7 °F 46.8 °F 30.11 in Calm     93% 0.00 in CLR
09:40 49.1 °F 47.2 °F 30.11 in Calm     93% 0.00 in CLR
09:45 49.7 °F 47.8 °F 30.12 in Calm     93% 0.00 in CLR
09:50 50.4 °F 48.2 °F 30.12 in Calm     92% 0.00 in CLR
09:55 51.4 °F 48.5 °F 30.12 in Calm     90% 0.00 in CLR
10:00 52.2 °F 48.7 °F 30.12 in Calm     88% 0.00 in CLR
10:05 53.1 °F 49.3 °F 30.12 in Calm     87% 0.00 in CLR
10:10 53.8 °F 49.1 °F 30.12 in Calm     84% 0.00 in CLR
10:15 54.3 °F 49.3 °F 30.12 in Calm     83% 0.00 in CLR
10:20 54.8 °F 49.7 °F 30.12 in Calm     83% 0.00 in CLR
10:25 55.2 °F 49.8 °F 30.12 in Calm     82% 0.00 in CLR
10:30 55.7 °F 50.0 °F 30.12 in Calm     81% 0.00 in CLR
10:35 56.2 °F 50.5 °F 30.12 in Calm     81% 0.00 in CLR
10:40 56.8 °F 51.0 °F 30.12 in Calm     81% 0.00 in CLR
10:45 57.9 °F 51.4 °F 30.12 in Calm     79% 0.00 in CLR
10:50 59.0 °F 50.7 °F 30.12 in Calm     74% 0.00 in CLR
10:55 59.7 °F 51.0 °F 30.12 in Calm     73% 0.00 in CLR
11:00 60.6 °F 51.5 °F 30.12 in Calm     72% 0.00 in CLR
11:05 61.8 °F 50.7 °F 30.12 in Calm     67% 0.00 in CLR
11:10 63.0 °F 50.6 °F 30.12 in WNW 1.0 mph 1.0 mph 64% 0.00 in CLR
11:11 63.2 °F 50.8 °F 30.12 in Calm     64% 0.00 in CLR
11:16 63.5 °F 50.2 °F 30.11 in NNE 1.2 mph   62% 0.00 in CLR
11:21 64.1 °F 51.7 °F 30.11 in Calm     64% 0.00 in CLR
11:26 64.4 °F 51.1 °F 30.11 in West 1.0 mph 1.0 mph 62% 0.00 in CLR
11:32 64.4 °F 52.0 °F 30.11 in West 1.2 mph   64% 0.00 in CLR
11:37 64.9 °F 52.0 °F 30.11 in WNW 1.2 mph   63% 0.00 in CLR
11:42 65.0 °F 51.7 °F 30.11 in Calm     62% 0.00 in CLR
11:47 65.3 °F 51.1 °F 30.11 in Calm   0.1 mph 60% 0.00 in CLR
11:52 65.5 °F 51.7 °F 30.11 in West 1.2 mph 1.2 mph 61% 0.00 in CLR
11:57 65.6 °F 51.8 °F 30.11 in WNW 1.2 mph 1.2 mph 61% 0.00 in CLR
12:02 65.6 °F 51.3 °F 30.11 in WNW 1.0 mph 1.0 mph 60% 0.00 in FEW
12:07 65.5 °F 52.1 °F 30.10 in NE 2.0 mph 2.0 mph 62% 0.00 in FEW
12:12 65.7 °F 53.2 °F 30.10 in NNW 1.2 mph   64% 0.00 in FEW
12:17 66.0 °F 52.6 °F 30.10 in West 1.2 mph 1.2 mph 62% 0.00 in FEW
12:23 66.1 °F 52.3 °F 30.10 in North 1.2 mph 1.2 mph 61% 0.00 in FEW
12:28 66.1 °F 53.1 °F 30.10 in WNW 1.2 mph 1.2 mph 63% 0.00 in FEW
12:33 66.3 °F 52.9 °F 30.10 in WNW 1.2 mph 1.2 mph 62% 0.00 in FEW
12:38 66.4 °F 53.8 °F 30.09 in Calm     64% 0.00 in FEW
12:43 66.7 °F 54.1 °F 30.09 in WNW 3.5 mph 3.5 mph 64% 0.00 in FEW
12:48 66.9 °F 54.7 °F 30.09 in WNW 1.2 mph   65% 0.00 in FEW
12:53 67.1 °F 53.2 °F 30.09 in East 1.2 mph 1.2 mph 61% 0.00 in FEW
12:58 67.0 °F 53.5 °F 30.08 in NW 2.3 mph   62% 0.00 in FEW
13:03 67.1 °F 54.1 °F 30.08 in West 1.2 mph 1.2 mph 63% 0.00 in FEW
13:09 67.4 °F 55.2 °F 30.08 in NNE 1.2 mph 1.2 mph 65% 0.00 in FEW
13:19 67.8 °F 54.3 °F 30.07 in SE 1.0 mph   62% 0.00 in FEW
13:24 67.9 °F 53.0 °F 30.07 in Calm     59% 0.00 in FEW
13:29 67.9 °F 53.0 °F 30.07 in West 1.2 mph 1.2 mph 59% 0.00 in FEW
13:34 68.1 °F 53.2 °F 30.07 in NW 2.3 mph 2.3 mph 59% 0.00 in FEW
13:39 68.3 °F 51.0 °F 30.07 in West 2.3 mph 2.3 mph 54% 0.00 in FEW
13:40 68.3 °F 52.0 °F 30.07 in West 2.3 mph 2.3 mph 56% 0.00 in FEW
13:45 68.2 °F 52.4 °F 30.06 in Calm     57% 0.00 in FEW
13:50 68.4 °F 52.6 °F 30.06 in Calm     57% 0.00 in FEW
13:55 69.0 °F 53.1 °F 30.06 in NW 1.2 mph 1.2 mph 57% 0.00 in FEW
14:00 69.4 °F 51.5 °F 30.06 in NNE 1.2 mph   53% 0.00 in FEW
14:06 69.9 °F 52.0 °F 30.06 in Calm     53% 0.00 in FEW
14:11 70.1 °F 53.2 °F 30.05 in Calm     55% 0.00 in FEW
14:16 71.0 °F 53.0 °F 30.05 in NNW 1.2 mph 1.2 mph 53% 0.00 in FEW
14:21 71.2 °F 52.7 °F 30.05 in West 2.0 mph 2.0 mph 52% 0.00 in FEW
14:26 71.1 °F 51.5 °F 30.05 in West 2.3 mph 2.3 mph 50% 0.00 in FEW
14:31 70.9 °F 51.9 °F 30.04 in WNW 3.5 mph 3.5 mph 51% 0.00 in FEW
14:36 70.9 °F 51.3 °F 30.04 in WNW 1.2 mph 1.2 mph 50% 0.00 in FEW
14:41 70.9 °F 51.9 °F 30.04 in West 1.2 mph 1.2 mph 51% 0.00 in FEW
14:46 71.1 °F 52.0 °F 30.03 in Calm     51% 0.00 in FEW
14:52 71.2 °F 52.1 °F 30.03 in Calm     51% 0.00 in FEW
14:57 71.2 °F 51.1 °F 30.02 in ESE 1.2 mph 1.2 mph 49% 0.00 in FEW
15:02 70.9 °F 50.8 °F 30.02 in Calm     49% 0.00 in FEW
15:07 70.8 °F 50.7 °F 30.02 in NNW 1.2 mph 1.2 mph 49% 0.00 in FEW
15:12 70.6 °F 51.1 °F 30.02 in Calm   0.2 mph 50% 0.00 in FEW
15:17 70.2 °F 51.7 °F 30.01 in Calm     52% 0.00 in FEW
15:22 69.9 °F 52.5 °F 30.01 in SE 2.3 mph 2.3 mph 54% 0.00 in FEW
15:27 70.1 °F 50.6 °F 30.01 in West 3.5 mph 3.5 mph 50% 0.00 in FEW
15:32 70.4 °F 51.4 °F 30.01 in Calm     51% 0.00 in FEW
15:37 70.7 °F 51.1 °F 30.01 in NW 1.2 mph 1.2 mph 50% 0.00 in FEW
15:43 70.7 °F 51.7 °F 30.01 in NW 1.2 mph   51% 0.00 in FEW
15:48 70.5 °F 51.5 °F 30.01 in Calm     51% 0.00 in FEW
15:53 70.0 °F 51.6 °F 30.00 in WNW 2.0 mph 2.0 mph 52% 0.00 in FEW
15:58 69.4 °F 52.0 °F 30.00 in NNW 1.2 mph 1.2 mph 54% 0.00 in FEW
16:03 68.9 °F 51.6 °F 30.00 in Calm     54% 0.00 in SCT
16:08 68.6 °F 51.8 °F 30.00 in Calm     55% 0.00 in SCT
16:13 68.5 °F 52.7 °F 30.00 in WSW 1.2 mph 1.2 mph 57% 0.00 in SCT
16:18 68.4 °F 52.1 °F 30.00 in Calm     56% 0.00 in SCT
16:24 68.4 °F 52.1 °F 30.00 in North 1.2 mph   56% 0.00 in SCT
16:29 68.4 °F 51.6 °F 30.00 in WNW 1.2 mph 1.2 mph 55% 0.00 in SCT
16:34 68.2 °F 51.9 °F 30.00 in Calm     56% 0.00 in SCT
16:39 68.1 °F 53.2 °F 30.00 in Calm     59% 0.00 in SCT
16:45 67.8 °F 51.0 °F 30.00 in NE 2.3 mph   55% 0.00 in SCT
16:50 68.0 °F 53.1 °F 30.00 in Calm   1.0 mph 59% 0.00 in SCT
16:55 68.1 °F 52.8 °F 30.00 in Calm     58% 0.00 in SCT
17:00 68.2 °F 52.9 °F 30.00 in Calm   1.0 mph 58% 0.00 in SCT
17:05 68.2 °F 53.3 °F 30.00 in Calm     59% 0.00 in FEW
17:10 68.2 °F 53.3 °F 30.00 in Calm     59% 0.00 in FEW
17:15 68.1 °F 52.3 °F 29.99 in Calm     57% 0.00 in FEW
17:20 68.0 °F 52.2 °F 29.99 in Calm   1.0 mph 57% 0.00 in FEW
17:25 67.8 °F 50.5 °F 29.99 in Calm     54% 0.00 in FEW
17:30 67.7 °F 49.9 °F 29.99 in Calm     53% 0.00 in FEW
17:35 67.5 °F 50.8 °F 29.99 in Calm     55% 0.00 in FEW
17:40 67.1 °F 50.9 °F 29.99 in Calm     56% 0.00 in FEW
17:45 66.8 °F 51.0 °F 29.98 in Calm     57% 0.00 in FEW
17:50 66.4 °F 51.2 °F 29.98 in Calm     58% 0.00 in FEW
17:55 66.0 °F 51.3 °F 29.98 in Calm   1.0 mph 59% 0.00 in FEW
18:00 65.8 °F 50.6 °F 29.99 in Calm   1.0 mph 58% 0.00 in FEW
18:05 65.6 °F 51.4 °F 29.99 in Calm     60% 0.00 in FEW
18:10 65.4 °F 49.8 °F 29.99 in Calm     57% 0.00 in FEW
18:15 65.3 °F 49.2 °F 29.99 in Calm   1.0 mph 56% 0.00 in FEW
18:20 65.2 °F 50.5 °F 29.99 in Calm     59% 0.00 in FEW
18:25 65.0 °F 50.8 °F 29.99 in Calm     60% 0.00 in FEW
18:30 64.8 °F 50.6 °F 29.99 in Calm     60% 0.00 in FEW
18:35 64.6 °F 50.4 °F 29.99 in Calm     60% 0.00 in FEW
18:40 64.4 °F 50.7 °F 29.99 in Calm     61% 0.00 in FEW
18:45 64.3 °F 51.0 °F 29.99 in Calm     62% 0.00 in FEW
18:50 64.1 °F 51.2 °F 29.99 in Calm     63% 0.00 in FEW
18:55 64.0 °F 51.1 °F 29.99 in Calm     63% 0.00 in FEW
19:00 63.8 °F 51.4 °F 29.99 in Calm     64% 0.00 in FEW
19:05 63.6 °F 51.2 °F 29.99 in Calm     64% 0.00 in BKN
19:10 63.4 °F 51.8 °F 29.99 in Calm     66% 0.00 in BKN
19:15 63.0 °F 51.5 °F 29.99 in Calm     66% 0.00 in BKN
19:20 62.6 °F 51.1 °F 29.99 in Calm     66% 0.00 in BKN
19:25 62.7 °F 50.8 °F 29.99 in Calm     65% 0.00 in BKN
19:30 63.0 °F 51.0 °F 29.99 in Calm     65% 0.00 in BKN
19:35 63.2 °F 50.8 °F 29.99 in Calm     64% 0.00 in BKN
19:40 63.2 °F 50.9 °F 30.00 in Calm     64% 0.00 in BKN
19:45 63.3 °F 50.9 °F 30.00 in Calm     64% 0.00 in BKN
19:50 63.4 °F 51.0 °F 30.00 in Calm     64% 0.00 in BKN
19:55 63.4 °F 51.0 °F 30.00 in Calm     64% 0.00 in BKN
20:00 63.3 °F 50.9 °F 30.00 in Calm     64% 0.00 in BKN
20:05 63.2 °F 50.8 °F 30.00 in Calm     64% 0.00 in BKN
20:10 63.1 °F 50.7 °F 30.00 in Calm     64% 0.00 in BKN
20:15 63.0 °F 51.0 °F 30.00 in Calm   1.0 mph 65% 0.00 in BKN
20:20 63.0 °F 51.0 °F 30.00 in Calm   1.0 mph 65% 0.00 in BKN
20:25 63.1 °F 51.2 °F 30.00 in Calm   1.0 mph 65% 0.00 in BKN
20:30 63.1 °F 50.3 °F 30.00 in Calm   1.0 mph 63% 0.00 in BKN
20:35 63.2 °F 50.0 °F 30.00 in Calm   1.0 mph 62% 0.00 in BKN
20:40 63.3 °F 49.6 °F 30.00 in Calm   1.0 mph 61% 0.00 in BKN
20:45 63.4 °F 49.7 °F 30.00 in Calm     61% 0.00 in BKN
20:50 63.3 °F 49.6 °F 30.00 in Calm   1.0 mph 61% 0.00 in BKN
20:55 63.3 °F 49.6 °F 30.00 in Calm   1.0 mph 61% 0.00 in BKN
21:00 63.2 °F 49.1 °F 30.00 in Calm   1.0 mph 60% 0.00 in BKN
21:05 63.1 °F 49.9 °F 30.00 in Calm     62% 0.00 in BKN
21:10 62.9 °F 48.8 °F 30.00 in Calm     60% 0.00 in BKN
21:15 62.8 °F 48.7 °F 30.01 in Calm     60% 0.00 in BKN
21:20 62.6 °F 48.5 °F 30.00 in Calm     60% 0.00 in BKN
21:25 62.4 °F 49.6 °F 30.00 in Calm     63% 0.00 in BKN
21:30 62.1 °F 49.4 °F 30.00 in Calm     63% 0.00 in BKN
21:35 62.0 °F 49.7 °F 30.01 in Calm     64% 0.00 in BKN
21:40 61.9 °F 48.7 °F 30.01 in Calm     62% 0.00 in BKN
21:45 61.8 °F 48.7 °F 30.01 in Calm     62% 0.00 in BKN
21:50 61.9 °F 49.5 °F 30.00 in Calm     64% 0.00 in BKN
21:55 61.7 °F 49.8 °F 30.00 in Calm     65% 0.00 in BKN
22:00 61.6 °F 49.3 °F 30.00 in Calm     64% 0.00 in BKN
22:05 61.6 °F 49.7 °F 30.00 in Calm   1.0 mph 65% 0.00 in BKN
22:10 61.4 °F 49.9 °F 29.99 in Calm     66% 0.00 in BKN
22:15 61.3 °F 49.4 °F 29.99 in Calm     65% 0.00 in BKN
22:20 61.4 °F 48.7 °F 29.99 in Calm     63% 0.00 in BKN
22:25 61.6 °F 48.4 °F 29.99 in Calm   1.0 mph 62% 0.00 in BKN
22:30 61.6 °F 48.4 °F 29.99 in Calm   1.0 mph 62% 0.00 in BKN
22:35 61.5 °F 47.9 °F 30.00 in Calm   1.0 mph 61% 0.00 in BKN
22:40 61.5 °F 48.3 °F 30.00 in Calm     62% 0.00 in BKN
22:45 61.3 °F 48.6 °F 30.00 in Calm     63% 0.00 in BKN
22:50 61.3 °F 48.6 °F 30.00 in Calm     63% 0.00 in BKN
22:55 61.4 °F 48.7 °F 30.00 in Calm     63% 0.00 in BKN
23:00 61.5 °F 48.4 °F 30.00 in Calm     62% 0.00 in BKN
23:05 61.7 °F 48.5 °F 30.00 in NNW 1.2 mph   62% 0.00 in BKN
23:10 61.8 °F 48.2 °F 29.99 in Calm     61% 0.00 in BKN
23:15 61.8 °F 48.2 °F 29.99 in Calm     61% 0.00 in BKN
23:20 61.7 °F 48.5 °F 29.99 in Calm     62% 0.00 in BKN
23:21 61.7 °F 48.1 °F 29.99 in Calm     61% 0.00 in BKN
23:26 61.5 °F 47.9 °F 29.99 in NW 2.0 mph 2.0 mph 61% 0.00 in BKN
23:33 61.7 °F 47.2 °F 29.99 in Calm     59% 0.00 in BKN
23:38 61.7 °F 46.8 °F 29.99 in West 1.2 mph 1.2 mph 58% 0.00 in BKN
23:43 61.6 °F 47.6 °F 29.99 in Calm     60% 0.00 in BKN
23:48 61.4 °F 47.4 °F 29.99 in NNW 1.2 mph 1.2 mph 60% 0.00 in BKN
23:53 61.4 °F 47.4 °F 29.99 in WNW 1.2 mph 1.2 mph 60% 0.00 in BKN
23:58 61.6 °F 47.1 °F 29.98 in NNW 1.2 mph   59% 0.00 in BKN
Piedmont Bend
Compliments of Weather Underground - 4 mb